createdAt,value
2019-05-11T00:01:18.817Z,3.50
2019-05-11T00:03:47.897Z,3.47
2019-05-11T00:06:17.307Z,3.50
2019-05-11T00:08:46.856Z,3.93
2019-05-11T00:11:16.021Z,3.70
2019-05-11T00:13:45.152Z,3.83
2019-05-11T00:16:14.225Z,3.40
2019-05-11T00:18:43.674Z,4.00
2019-05-11T00:21:13.265Z,3.87
2019-05-11T00:23:42.428Z,3.33
2019-05-11T00:26:11.577Z,3.43
2019-05-11T00:28:41.004Z,3.10
2019-05-11T00:31:10.238Z,3.27
2019-05-11T00:33:39.321Z,3.50
2019-05-11T00:36:08.785Z,3.70
2019-05-11T00:38:38.035Z,3.63
2019-05-11T00:41:07.181Z,3.70
2019-05-11T00:43:36.345Z,3.03
2019-05-11T00:46:05.468Z,3.07
2019-05-11T00:48:34.551Z,3.10
2019-05-11T00:51:04.184Z,3.03
2019-05-11T00:53:33.423Z,3.40
2019-05-11T00:56:02.949Z,2.70
2019-05-11T00:58:32.194Z,3.67
2019-05-11T01:01:01.322Z,2.70
2019-05-11T01:03:30.789Z,3.27
2019-05-11T01:06:00.018Z,2.57
2019-05-11T01:08:29.096Z,3.27
2019-05-11T01:10:58.161Z,3.67
2019-05-11T01:13:27.239Z,3.10
2019-05-11T01:15:56.692Z,3.53
2019-05-11T01:18:25.861Z,3.03
2019-05-11T01:20:54.923Z,2.80
2019-05-11T01:23:24.339Z,2.97
2019-05-11T01:25:53.480Z,2.90
2019-05-11T01:28:22.552Z,2.80
2019-05-11T01:30:52.010Z,3.10
2019-05-11T01:33:21.591Z,3.30
2019-05-11T01:35:51.256Z,3.23
2019-05-11T01:38:20.415Z,3.43
2019-05-11T01:40:58.219Z,3.00
2019-05-11T01:43:20.379Z,3.43
2019-05-11T01:45:49.525Z,3.50
2019-05-11T01:48:18.681Z,3.30
2019-05-11T01:50:48.077Z,3.03
2019-05-11T01:53:17.229Z,3.50
2019-05-11T01:55:46.641Z,3.20
2019-05-11T01:58:16.093Z,3.33
2019-05-11T02:00:45.313Z,3.20
2019-05-11T02:03:14.780Z,3.10
2019-05-11T02:05:44.351Z,3.13
2019-05-11T02:08:13.572Z,2.90
2019-05-11T02:10:42.701Z,3.10
2019-05-11T02:13:12.054Z,3.13
2019-05-11T02:15:41.495Z,3.07
2019-05-11T02:18:10.973Z,2.97
2019-05-11T02:20:41.036Z,2.97
2019-05-11T02:23:10.269Z,3.03
2019-05-11T02:25:39.415Z,3.07
2019-05-11T02:28:08.549Z,3.07
2019-05-11T02:30:37.948Z,4.07
2019-05-11T02:33:07.195Z,2.90
2019-05-11T02:35:36.661Z,2.93
2019-05-11T02:38:05.826Z,2.90
2019-05-11T02:40:34.970Z,3.00
2019-05-11T02:43:04.183Z,3.00
2019-05-11T02:45:34.768Z,3.23
2019-05-11T02:48:03.906Z,3.70
2019-05-11T02:50:34.238Z,2.93
2019-05-11T02:53:04.839Z,2.90
2019-05-11T02:55:34.946Z,3.10
2019-05-11T02:58:04.782Z,3.27
2019-05-11T03:00:35.227Z,3.13
2019-05-11T03:03:04.605Z,2.83
2019-05-11T03:05:33.781Z,3.30
2019-05-11T03:08:02.912Z,3.20
2019-05-11T03:10:32.054Z,3.47
2019-05-11T03:13:01.129Z,3.17
2019-05-11T03:15:30.277Z,3.10
2019-05-11T03:17:59.434Z,3.13
2019-05-11T03:20:28.895Z,3.60
2019-05-11T03:22:58.126Z,3.67
2019-05-11T03:25:27.198Z,3.20
2019-05-11T03:27:56.269Z,3.23
2019-05-11T03:30:25.365Z,3.70
2019-05-11T03:32:54.557Z,3.33
2019-05-11T03:35:23.698Z,3.40
2019-05-11T03:37:53.149Z,3.50
2019-05-11T03:40:22.390Z,3.80
2019-05-11T03:42:51.522Z,3.50
2019-05-11T03:45:21.002Z,3.37
2019-05-11T03:47:50.247Z,3.30
2019-05-11T03:50:19.397Z,3.40
2019-05-11T03:52:48.854Z,3.77
2019-05-11T03:55:18.094Z,4.10
2019-05-11T03:57:47.233Z,3.73
2019-05-11T04:00:16.458Z,3.40
2019-05-11T04:02:45.597Z,2.80
2019-05-11T04:05:15.330Z,3.83
2019-05-11T04:07:44.896Z,3.00
2019-05-11T04:10:14.537Z,2.30
2019-05-11T04:12:44.027Z,2.17
2019-05-11T04:15:13.534Z,2.47
2019-05-11T04:17:42.930Z,2.27
2019-05-11T04:20:12.161Z,2.70
2019-05-11T04:22:41.627Z,2.93
2019-05-11T04:25:11.358Z,2.50
2019-05-11T04:27:40.862Z,2.70
2019-05-11T04:30:10.264Z,3.00
2019-05-11T04:32:39.394Z,3.27
2019-05-11T04:35:08.462Z,3.80
2019-05-11T04:37:37.937Z,3.77
2019-05-11T04:40:07.273Z,3.20
2019-05-11T04:42:53.264Z,3.53
2019-05-11T04:45:07.736Z,3.67
2019-05-11T04:47:37.142Z,3.63
2019-05-11T04:50:07.895Z,4.20
2019-05-11T04:52:37.049Z,4.23
2019-05-11T04:55:06.696Z,4.40
2019-05-11T04:57:36.242Z,3.77
2019-05-11T05:00:06.651Z,3.90
2019-05-11T05:02:35.723Z,3.90
2019-05-11T05:05:05.601Z,4.70
2019-05-11T05:07:34.989Z,4.00
2019-05-11T05:10:05.121Z,5.00
2019-05-11T05:12:34.268Z,4.73
2019-05-11T05:15:04.085Z,4.67
2019-05-11T05:17:33.157Z,5.40
2019-05-11T05:20:02.408Z,5.00
2019-05-11T05:22:31.541Z,5.57
2019-05-11T05:25:00.933Z,6.70
2019-05-11T05:27:30.176Z,5.80
2019-05-11T05:29:59.636Z,5.70
2019-05-11T05:32:28.828Z,6.10
2019-05-11T05:34:58.211Z,5.53
2019-05-11T05:37:27.447Z,5.37
2019-05-11T05:39:56.842Z,6.33
2019-05-11T05:42:26.412Z,5.80
2019-05-11T05:44:55.909Z,5.17
2019-05-11T05:47:25.460Z,5.50
2019-05-11T05:49:55.025Z,5.80
2019-05-11T05:52:24.806Z,5.47
2019-05-11T05:54:54.358Z,5.47
2019-05-11T05:57:23.929Z,5.40
2019-05-11T05:59:53.481Z,4.40
2019-05-11T06:02:23.080Z,5.30
2019-05-11T06:04:52.690Z,4.97
2019-05-11T06:07:22.262Z,5.33
2019-05-11T06:09:51.743Z,4.93
2019-05-11T06:12:21.312Z,4.93
2019-05-11T06:14:50.866Z,4.90
2019-05-11T06:17:20.449Z,4.77
2019-05-11T06:19:50.026Z,4.33
2019-05-11T06:22:19.597Z,4.67
2019-05-11T06:24:49.142Z,4.30
2019-05-11T06:27:18.705Z,4.90
2019-05-11T06:29:48.252Z,4.47
2019-05-11T06:32:17.842Z,5.70
2019-05-11T06:34:47.402Z,5.73
2019-05-11T06:37:16.986Z,4.33
2019-05-11T06:39:46.461Z,4.43
2019-05-11T06:42:15.961Z,5.40
2019-05-11T06:44:45.525Z,4.30
2019-05-11T06:47:15.031Z,3.87
2019-05-11T06:49:44.678Z,5.20
2019-05-11T06:52:14.193Z,4.10
2019-05-11T06:54:43.697Z,4.30
2019-05-11T06:57:13.189Z,4.23
2019-05-11T06:59:42.748Z,3.27
2019-05-11T07:02:12.317Z,3.40
2019-05-11T07:04:41.885Z,3.70
2019-05-11T07:07:11.382Z,4.20
2019-05-11T07:09:40.947Z,3.87
2019-05-11T07:12:10.645Z,3.73
2019-05-11T07:14:40.266Z,3.53
2019-05-11T07:17:09.833Z,3.40
2019-05-11T07:19:40.723Z,3.17
2019-05-11T07:22:10.424Z,2.70
2019-05-11T07:24:41.271Z,2.53
2019-05-11T07:27:17.424Z,2.50
2019-05-11T07:29:47.065Z,2.27
2019-05-11T07:32:25.101Z,2.77
2019-05-11T07:34:50.118Z,2.70
2019-05-11T07:37:42.145Z,2.40
2019-05-11T07:40:30.249Z,2.63
2019-05-11T07:43:05.958Z,3.10
2019-05-11T07:45:34.369Z,2.60
2019-05-11T07:48:20.379Z,2.90
2019-05-11T07:50:51.310Z,2.70
2019-05-11T07:53:20.988Z,2.40
2019-05-11T07:55:50.664Z,2.90
2019-05-11T07:58:20.647Z,2.67
2019-05-11T08:00:50.218Z,2.70
2019-05-11T08:03:19.789Z,3.20
2019-05-11T08:05:49.375Z,2.90
2019-05-11T08:08:18.924Z,2.87
2019-05-11T08:10:48.504Z,2.40
2019-05-11T08:13:18.010Z,2.70
2019-05-11T08:15:48.847Z,2.50
2019-05-11T08:18:19.019Z,2.43
2019-05-11T08:20:48.564Z,2.30
2019-05-11T08:23:18.211Z,3.07
2019-05-11T08:26:01.166Z,2.50
2019-05-11T08:28:33.139Z,2.90
2019-05-11T08:31:08.044Z,2.37
2019-05-11T08:33:38.941Z,2.70
2019-05-11T08:36:08.845Z,2.90
2019-05-11T08:38:38.424Z,2.63
2019-05-11T08:41:08.288Z,2.80
2019-05-11T08:43:38.844Z,2.70
2019-05-11T08:46:08.599Z,2.70
2019-05-11T08:48:40.013Z,2.80
2019-05-11T08:51:09.894Z,2.60
2019-05-11T08:53:42.968Z,2.10
2019-05-11T08:56:14.793Z,2.07
2019-05-11T08:58:49.225Z,2.40
2019-05-11T09:01:24.594Z,2.60
2019-05-11T09:03:54.268Z,2.67
2019-05-11T09:06:23.792Z,2.70
2019-05-11T09:08:53.362Z,2.47
2019-05-11T09:11:22.853Z,2.90
2019-05-11T09:13:52.429Z,2.83
2019-05-11T09:16:21.921Z,3.00
2019-05-11T09:18:51.481Z,3.23
2019-05-11T09:21:20.981Z,2.60
2019-05-11T09:23:50.480Z,2.83
2019-05-11T09:26:20.069Z,2.43
2019-05-11T09:28:49.624Z,3.03
2019-05-11T09:31:19.209Z,2.40
2019-05-11T09:33:48.784Z,2.37
2019-05-11T09:36:18.437Z,2.63
2019-05-11T09:38:49.055Z,2.60
2019-05-11T09:41:18.830Z,2.80
2019-05-11T09:43:48.508Z,2.33
2019-05-11T09:46:18.796Z,2.80
2019-05-11T09:48:48.701Z,2.90
2019-05-11T09:51:18.634Z,2.67
2019-05-11T09:53:48.589Z,2.93
2019-05-11T09:56:18.567Z,2.40
2019-05-11T09:58:48.273Z,2.17
2019-05-11T10:01:18.450Z,2.27
2019-05-11T10:03:48.408Z,2.20
2019-05-11T10:06:19.104Z,2.30
2019-05-11T10:08:48.973Z,2.60
2019-05-11T10:11:19.123Z,2.57
2019-05-11T10:13:48.805Z,2.53
2019-05-11T10:16:18.306Z,2.60
2019-05-11T10:18:49.111Z,2.77
2019-05-11T10:21:19.040Z,2.33
2019-05-11T10:23:49.017Z,2.50
2019-05-11T10:26:19.045Z,2.40
2019-05-11T10:28:48.611Z,2.30
2019-05-11T10:31:18.399Z,2.80
2019-05-11T10:33:48.901Z,2.57
2019-05-11T10:36:19.104Z,2.97
2019-05-11T10:38:48.971Z,2.70
2019-05-11T10:41:18.538Z,2.20
2019-05-11T10:43:48.844Z,2.27
2019-05-11T10:46:22.951Z,2.50
2019-05-11T10:48:50.072Z,2.63
2019-05-11T10:51:19.570Z,2.47
2019-05-11T10:53:51.926Z,2.33
2019-05-11T10:56:20.506Z,2.50
2019-05-11T10:58:50.080Z,2.50
2019-05-11T11:01:19.569Z,2.43
2019-05-11T11:03:49.145Z,2.40
2019-05-11T11:06:19.009Z,2.57
2019-05-11T11:08:48.877Z,2.70
2019-05-11T11:11:18.736Z,2.23
2019-05-11T11:13:48.332Z,2.90
2019-05-11T11:16:35.109Z,2.30
2019-05-11T11:18:49.053Z,2.53
2019-05-11T11:21:22.543Z,2.47
2019-05-11T11:23:49.877Z,3.03
2019-05-11T11:26:19.450Z,2.13
2019-05-11T11:28:49.000Z,2.20
2019-05-11T11:31:18.968Z,2.40
2019-05-11T11:33:49.052Z,2.50
2019-05-11T11:36:18.786Z,1.87
2019-05-11T11:38:48.350Z,2.40
2019-05-11T11:41:18.480Z,1.90
2019-05-11T11:43:48.663Z,2.10
2019-05-11T11:46:18.911Z,2.20
2019-05-11T11:48:48.925Z,2.20
2019-05-11T11:51:18.962Z,2.03
2019-05-11T11:53:48.612Z,2.10
2019-05-11T11:56:19.135Z,2.00
2019-05-11T11:58:49.077Z,2.40
2019-05-11T12:01:19.090Z,2.43
2019-05-11T12:03:49.114Z,2.40
2019-05-11T12:06:18.766Z,2.00
2019-05-11T12:08:49.773Z,2.10
2019-05-11T12:11:19.440Z,1.90
2019-05-11T12:13:49.005Z,2.20
2019-05-11T12:16:18.586Z,2.17
2019-05-11T12:18:48.825Z,2.20
2019-05-11T12:21:18.772Z,2.20
2019-05-11T12:23:48.853Z,2.30
2019-05-11T12:26:18.485Z,2.13
2019-05-11T12:28:49.053Z,1.93
2019-05-11T12:31:18.833Z,1.97
2019-05-11T12:33:48.619Z,2.20
2019-05-11T12:36:18.845Z,2.63
2019-05-11T12:38:49.014Z,2.20
2019-05-11T12:41:19.179Z,2.23
2019-05-11T12:43:49.142Z,2.57
2019-05-11T12:46:19.096Z,2.23
2019-05-11T12:48:48.811Z,2.20
2019-05-11T12:51:21.307Z,2.03
2019-05-11T12:53:51.368Z,2.40
2019-05-11T12:56:20.961Z,2.10
2019-05-11T12:58:50.449Z,2.53
2019-05-11T13:01:19.948Z,2.17
2019-05-11T13:03:49.520Z,2.07
2019-05-11T13:06:19.378Z,2.17
2019-05-11T13:08:48.893Z,2.00
2019-05-11T13:11:18.874Z,2.10
2019-05-11T13:13:48.653Z,2.23
2019-05-11T13:16:18.674Z,2.10
2019-05-11T13:18:48.812Z,1.97
2019-05-11T13:21:18.581Z,2.30
2019-05-11T13:23:48.856Z,2.30
2019-05-11T13:26:18.616Z,2.80
2019-05-11T13:28:48.562Z,2.33
2019-05-11T13:31:18.799Z,3.00
2019-05-11T13:33:48.481Z,2.17
2019-05-11T13:36:18.622Z,2.30
2019-05-11T13:38:48.615Z,2.10
2019-05-11T13:41:19.116Z,1.90
2019-05-11T13:43:48.792Z,2.10
2019-05-11T13:46:18.353Z,2.07
2019-05-11T13:48:47.928Z,2.10
2019-05-11T13:51:18.448Z,2.10
2019-05-11T13:53:48.442Z,2.40
2019-05-11T13:56:18.565Z,2.27
2019-05-11T13:58:48.940Z,1.93
2019-05-11T14:01:18.789Z,2.00
2019-05-11T14:03:48.646Z,2.33
2019-05-11T14:06:23.305Z,2.10
2019-05-11T14:08:52.877Z,3.63
2019-05-11T14:11:22.517Z,1.63
2019-05-11T14:13:52.105Z,1.60
2019-05-11T14:16:21.835Z,2.00
2019-05-11T14:18:51.386Z,1.70
2019-05-11T14:21:21.017Z,1.57
2019-05-11T14:23:50.605Z,1.33
2019-05-11T14:26:20.254Z,1.40
2019-05-11T14:28:49.889Z,4.83
2019-05-11T14:31:19.536Z,4.20
2019-05-11T14:33:49.176Z,2.37
2019-05-11T14:36:18.751Z,2.00
2019-05-11T14:38:48.849Z,8.10
2019-05-11T14:41:18.527Z,5.43
2019-05-11T14:43:48.953Z,4.03
2019-05-11T14:46:18.616Z,4.70
2019-05-11T14:48:48.325Z,3.10
2019-05-11T14:51:18.233Z,2.17
2019-05-11T14:53:48.327Z,2.80
2019-05-11T14:56:19.099Z,3.10
2019-05-11T14:58:49.400Z,4.97
2019-05-11T15:01:18.946Z,1.83
2019-05-11T15:03:48.907Z,1.50
2019-05-11T15:06:19.018Z,1.50
2019-05-11T15:08:48.686Z,1.43
2019-05-11T15:11:19.213Z,1.50
2019-05-11T15:13:49.073Z,2.23
2019-05-11T15:16:18.922Z,2.37
2019-05-11T15:18:48.704Z,1.40
2019-05-11T15:21:18.860Z,2.33
2019-05-11T15:23:48.698Z,2.90
2019-05-11T15:26:18.764Z,2.00
2019-05-11T15:28:48.791Z,3.33
2019-05-11T15:31:22.107Z,2.47
2019-05-11T15:33:49.669Z,2.20
2019-05-11T15:36:19.511Z,2.07
2019-05-11T15:38:49.144Z,1.90
2019-05-11T15:41:18.729Z,3.57
2019-05-11T15:43:48.234Z,2.20
2019-05-11T15:46:19.723Z,1.60
2019-05-11T15:48:59.532Z,1.80
2019-05-11T15:51:20.259Z,1.40
2019-05-11T15:53:50.273Z,1.33
2019-05-11T15:56:19.969Z,1.77
2019-05-11T15:58:49.575Z,1.80
2019-05-11T16:01:19.197Z,1.70
2019-05-11T16:03:50.106Z,1.50
2019-05-11T16:06:19.805Z,1.80
2019-05-11T16:08:49.378Z,1.40
2019-05-11T16:11:18.877Z,1.83
2019-05-11T16:13:48.610Z,2.00
2019-05-11T16:16:18.232Z,1.33
2019-05-11T16:18:48.364Z,1.77
2019-05-11T16:21:19.017Z,1.30
2019-05-11T16:23:48.590Z,1.83
2019-05-11T16:26:18.161Z,1.47
2019-05-11T16:28:47.868Z,1.60
2019-05-11T16:31:17.951Z,1.70
2019-05-11T16:33:48.429Z,1.53
2019-05-11T16:36:18.324Z,1.53
2019-05-11T16:38:48.351Z,1.70
2019-05-11T16:41:20.995Z,1.70
2019-05-11T16:43:49.295Z,1.50
2019-05-11T16:46:18.871Z,1.40
2019-05-11T16:48:48.608Z,1.60
2019-05-11T16:51:18.255Z,1.70
2019-05-11T16:53:48.123Z,1.40
2019-05-11T16:56:19.670Z,1.57
2019-05-11T16:58:49.069Z,1.40
2019-05-11T17:01:18.936Z,1.63
2019-05-11T17:03:48.601Z,1.70
2019-05-11T17:06:19.733Z,1.57
2019-05-11T17:08:49.322Z,1.90
2019-05-11T17:11:18.973Z,1.60
2019-05-11T17:13:48.516Z,1.73
2019-05-11T17:16:18.143Z,1.57
2019-05-11T17:18:48.313Z,1.63
2019-05-11T17:21:18.786Z,1.93
2019-05-11T17:23:48.973Z,1.63
2019-05-11T17:26:19.157Z,1.77
2019-05-11T17:28:49.081Z,1.70
2019-05-11T17:31:19.043Z,1.73
2019-05-11T17:33:48.739Z,2.17
2019-05-11T17:36:18.781Z,1.60
2019-05-11T17:38:48.398Z,2.00
2019-05-11T17:41:17.965Z,2.00
2019-05-11T17:43:47.931Z,1.70
2019-05-11T17:46:18.419Z,1.83
2019-05-11T17:48:48.097Z,1.70
2019-05-11T17:51:21.894Z,1.87
2019-05-11T17:53:48.785Z,1.60
2019-05-11T17:56:18.289Z,2.00
2019-05-11T17:58:48.410Z,2.20
2019-05-11T18:01:18.627Z,1.80
2019-05-11T18:03:48.505Z,1.90
2019-05-11T18:06:18.521Z,1.80
2019-05-11T18:08:48.140Z,2.23
2019-05-11T18:11:18.558Z,2.10
2019-05-11T18:13:48.337Z,2.10
2019-05-11T18:16:18.738Z,2.10
2019-05-11T18:18:48.534Z,1.73
2019-05-11T18:21:18.893Z,1.80
2019-05-11T18:23:48.600Z,1.97
2019-05-11T18:26:19.532Z,1.80
2019-05-11T18:28:49.163Z,1.87
2019-05-11T18:31:18.834Z,1.70
2019-05-11T18:33:48.745Z,1.83
2019-05-11T18:36:18.508Z,1.73
2019-05-11T18:38:48.734Z,2.00
2019-05-11T18:41:18.281Z,1.77
2019-05-11T18:43:48.470Z,1.90
2019-05-11T18:46:18.023Z,1.90
2019-05-11T18:48:48.679Z,2.00
2019-05-11T18:51:18.261Z,2.10
2019-05-11T18:53:48.292Z,2.27
2019-05-11T18:56:18.272Z,1.87
2019-05-11T18:58:47.928Z,2.00
2019-05-11T19:01:17.991Z,1.77
2019-05-11T19:03:47.996Z,2.03
2019-05-11T19:06:18.415Z,2.20
2019-05-11T19:08:48.175Z,1.80
2019-05-11T19:11:18.308Z,1.93
2019-05-11T19:13:47.957Z,3.53
2019-05-11T19:16:18.619Z,3.93
2019-05-11T19:18:48.409Z,2.80
2019-05-11T19:21:24.074Z,3.00
2019-05-11T19:23:58.098Z,3.63
2019-05-11T19:26:28.876Z,4.23
2019-05-11T19:29:00.717Z,18.77
2019-05-11T19:31:29.965Z,7.20
2019-05-11T19:33:59.672Z,3.40
2019-05-11T19:36:29.177Z,2.50
2019-05-11T19:39:01.218Z,4.80
2019-05-11T19:41:31.011Z,5.93
2019-05-11T19:44:00.573Z,5.70
2019-05-11T19:46:38.618Z,7.17
2019-05-11T19:49:27.826Z,5.33
2019-05-11T19:51:59.304Z,3.03
2019-05-11T19:54:29.031Z,2.80
2019-05-11T19:56:58.667Z,2.90
2019-05-11T19:59:30.163Z,2.60
2019-05-11T20:02:00.178Z,2.50
2019-05-11T20:04:30.824Z,2.43
2019-05-11T20:07:00.407Z,2.03
2019-05-11T20:09:30.028Z,2.50
2019-05-11T20:11:59.740Z,2.30
2019-05-11T20:14:29.340Z,2.33
2019-05-11T20:16:59.617Z,2.43
2019-05-11T20:19:30.040Z,2.10
2019-05-11T20:21:59.992Z,2.20
2019-05-11T20:24:29.747Z,2.43
2019-05-11T20:27:00.451Z,2.20
2019-05-11T20:29:30.964Z,2.00
2019-05-11T20:32:00.526Z,1.83
2019-05-11T20:34:30.837Z,2.00
2019-05-11T20:37:00.421Z,1.83
2019-05-11T20:39:30.010Z,1.67
2019-05-11T20:41:59.917Z,1.80
2019-05-11T20:44:29.513Z,2.47
2019-05-11T20:46:59.081Z,1.80
2019-05-11T20:49:28.581Z,2.13
2019-05-11T20:51:58.213Z,2.00
2019-05-11T20:54:28.254Z,1.90
2019-05-11T20:56:58.522Z,2.00
2019-05-11T20:59:28.946Z,2.17
2019-05-11T21:01:58.947Z,1.70
2019-05-11T21:04:28.504Z,2.00
2019-05-11T21:06:58.194Z,1.80
2019-05-11T21:09:28.931Z,1.87
2019-05-11T21:11:59.091Z,1.53
2019-05-11T21:14:28.988Z,2.00
2019-05-11T21:16:58.912Z,1.60
2019-05-11T21:19:28.637Z,2.00
2019-05-11T21:21:59.014Z,2.00
2019-05-11T21:24:28.735Z,1.60
2019-05-11T21:26:58.582Z,1.67
2019-05-11T21:29:31.264Z,1.70
2019-05-11T21:31:59.485Z,1.90
2019-05-11T21:34:29.033Z,1.50
2019-05-11T21:36:58.597Z,1.93
2019-05-11T21:39:28.764Z,2.20
2019-05-11T21:41:58.687Z,1.73
2019-05-11T21:44:28.238Z,1.80
2019-05-11T21:46:57.805Z,1.93
2019-05-11T21:49:27.357Z,1.50
2019-05-11T21:52:04.463Z,1.90
2019-05-11T21:54:30.207Z,2.10
2019-05-11T21:56:59.427Z,1.80
2019-05-11T21:59:29.001Z,1.90
2019-05-11T22:01:58.548Z,1.97
2019-05-11T22:04:28.601Z,1.83
2019-05-11T22:06:58.777Z,2.13
2019-05-11T22:09:28.507Z,2.07
2019-05-11T22:11:58.145Z,1.70
2019-05-11T22:14:29.753Z,2.20
2019-05-11T22:17:02.364Z,2.17
2019-05-11T22:19:29.810Z,1.90
2019-05-11T22:21:59.269Z,2.37
2019-05-11T22:24:28.762Z,2.17
2019-05-11T22:27:00.282Z,1.93
2019-05-11T22:29:29.518Z,2.40
2019-05-11T22:31:59.013Z,2.37
2019-05-11T22:34:28.564Z,2.47
2019-05-11T22:36:58.234Z,1.97
2019-05-11T22:39:27.844Z,2.30
2019-05-11T22:41:58.919Z,2.17
2019-05-11T22:44:28.565Z,2.30
2019-05-11T22:46:58.279Z,2.50
2019-05-11T22:49:28.458Z,2.40
2019-05-11T22:51:59.856Z,2.60
2019-05-11T22:54:29.519Z,2.37
2019-05-11T22:56:58.993Z,2.30
2019-05-11T22:59:28.556Z,2.20
2019-05-11T23:01:58.042Z,2.20
2019-05-11T23:04:28.790Z,3.00
2019-05-11T23:06:58.532Z,2.83
2019-05-11T23:09:28.055Z,2.23
2019-05-11T23:11:58.314Z,2.43
2019-05-11T23:14:28.461Z,2.20
2019-05-11T23:16:58.596Z,2.43
2019-05-11T23:19:28.279Z,2.40
2019-05-11T23:21:58.747Z,2.60
2019-05-11T23:24:28.794Z,2.73
2019-05-11T23:26:58.396Z,3.37
2019-05-11T23:29:28.008Z,2.27
2019-05-11T23:31:58.393Z,2.90
2019-05-11T23:34:28.323Z,2.30
2019-05-11T23:36:59.133Z,2.50
2019-05-11T23:39:28.772Z,2.20
2019-05-11T23:41:58.684Z,2.70
2019-05-11T23:44:28.317Z,2.67
2019-05-11T23:46:57.823Z,2.73
2019-05-11T23:49:27.379Z,2.83
2019-05-11T23:51:56.965Z,2.80
2019-05-11T23:54:27.857Z,2.70
2019-05-11T23:56:58.361Z,2.73
2019-05-11T23:59:28.006Z,2.60
